Colonia Pastoril, Argentina
Current Conditions -  °F | °C
As of 6:00 PM on Friday 28 Nov 2014 (Local Time) from SARF Reporting Station
Clear Clear  
Wind Chill: 33°   Ceiling: Unl
Heat Index: 33°   Visibility: 6mi
Dew Point: 16°   Wind: 5mph
Humidity: 36%   Direction: 70°ENE
Pressure: 29.74"   Gusts: NA
Location:  26.14°S, 58.39°W
Report Text: SARF 282100Z 07004KT CAVOK 33/16 Q1007
Loading
Personal Weather Stations






























Interactive Weather Map New forecast layout! Learn more

10-Day Weather Forecast

Advertisements
Track Severe Weather on mobile